Time;durP1;ratioP1;P1;durP2;ratioP2;P2;SDS_P1;SDS_P2;PMS_P1;PMS_P2;Temp;Humidity;BMP_temperature;BMP_pressure;BME280_temperature;BME280_humidity;BME280_pressure;Samples;Min_cycle;Max_cycle;Signal;HPM_P1;HPM_P2
2023/01/18 00:00:05;;;;;;;7.57;4.78;;;3.10;99.90;;;;;;5073998;28;20032;-77
2023/01/18 00:02:31;;;;;;;5.95;4.90;;;3.10;99.90;;;;;;5055814;28;20028;-76
2023/01/18 00:04:56;;;;;;;5.47;4.30;;;3.10;99.90;;;;;;5073852;28;20029;-76
2023/01/18 00:07:22;;;;;;;5.13;4.18;;;3.10;99.90;;;;;;5073451;28;20183;-76
2023/01/18 00:09:48;;;;;;;6.63;4.53;;;3.10;99.90;;;;;;5055697;28;20107;-77
2023/01/18 00:12:13;;;;;;;6.30;4.38;;;3.10;99.90;;;;;;5073756;28;20108;-76
2023/01/18 00:14:39;;;;;;;4.95;3.53;;;3.10;99.90;;;;;;5073451;28;20040;-76
2023/01/18 00:17:04;;;;;;;4.53;3.42;;;3.10;99.90;;;;;;5073526;28;20031;-76
2023/01/18 00:19:32;;;;;;;5.18;4.55;;;3.10;99.90;;;;;;5056063;28;20035;-75
2023/01/18 00:21:58;;;;;;;3.90;3.25;;;3.10;99.90;;;;;;5073759;28;20029;-76
2023/01/18 00:24:26;;;;;;;5.40;4.30;;;3.10;99.90;;;;;;5055390;28;20032;-76
2023/01/18 00:26:52;;;;;;;6.10;4.00;;;3.10;99.90;;;;;;5055437;28;20029;-76
2023/01/18 00:29:18;;;;;;;8.30;3.80;;;3.10;99.90;;;;;;5055149;28;20098;-76
2023/01/18 00:31:44;;;;;;;4.72;3.72;;;3.10;99.90;;;;;;5073077;28;20036;-76
2023/01/18 00:34:10;;;;;;;4.55;3.70;;;3.10;99.90;;;;;;5073252;28;20039;-76
2023/01/18 00:36:36;;;;;;;5.05;3.80;;;3.10;99.90;;;;;;5057209;28;20116;-75
2023/01/18 00:39:01;;;;;;;5.00;4.13;;;3.10;99.90;;;;;;5077085;28;20529;-75
2023/01/18 00:41:27;;;;;;;4.88;4.10;;;3.10;99.90;;;;;;5077092;28;20497;-76
2023/01/18 00:43:53;;;;;;;5.03;3.97;;;3.10;99.90;;;;;;5077127;28;20390;-76
2023/01/18 00:46:22;;;;;;;4.97;3.70;;;3.10;99.90;;;;;;5076704;28;20120;-76
2023/01/18 00:48:48;;;;;;;4.32;3.78;;;3.10;99.90;;;;;;5077352;28;20103;-76
2023/01/18 00:51:20;;;;;;;4.97;3.95;;;3.10;99.90;;;;;;5077125;28;20054;-76
2023/01/18 00:53:46;;;;;;;5.28;3.63;;;3.10;99.90;;;;;;5059151;28;20033;-76
2023/01/18 00:56:15;;;;;;;5.47;4.03;;;3.10;99.90;;;;;;5077195;28;20108;-76
2023/01/18 00:58:41;;;;;;;;;;;3.10;99.90;;;;;;5059609;28;20123;-75
2023/01/18 01:01:08;;;;;;;5.22;3.67;;;3.10;99.90;;;;;;5058936;28;19951;-75
2023/01/18 01:06:45;;;;;;;5.72;4.07;;;3.10;99.90;;;;;;5076741;28;20035;-76
2023/01/18 01:09:20;;;;;;;4.97;3.83;;;3.10;99.90;;;;;;5058809;28;20035;-76
2023/01/18 01:28:20;;;;;;;5.72;4.00;;;3.10;99.90;;;;;;5076515;28;20052;-76
2023/01/18 01:30:46;;;;;;;6.57;4.40;;;3.00;99.90;;;;;;5076227;28;20025;-75
2023/01/18 01:33:12;;;;;;;6.78;4.85;;;3.00;99.90;;;;;;5075815;28;20031;-75
2023/01/18 01:35:38;;;;;;;7.72;5.82;;;3.00;99.90;;;;;;5076263;28;20024;-76
2023/01/18 01:38:03;;;;;;;7.38;5.53;;;2.90;99.90;;;;;;5076376;28;20455;-76
2023/01/18 01:40:29;;;;;;;7.10;6.00;;;2.90;99.90;;;;;;5075865;28;20029;-75
2023/01/18 01:42:55;;;;;;;7.65;5.72;;;2.80;99.90;;;;;;5058051;28;20051;-76
2023/01/18 01:45:27;;;;;;;9.90;6.30;;;2.80;99.90;;;;;;5058012;28;20035;-76
2023/01/18 01:47:53;;;;;;;9.63;6.43;;;2.70;99.90;;;;;;5057839;28;20136;-76
2023/01/18 01:50:27;;;;;;;9.25;6.30;;;2.70;99.90;;;;;;5057550;28;20036;-75
2023/01/18 01:52:53;;;;;;;9.35;6.40;;;2.70;99.90;;;;;;5076225;28;20060;-76
2023/01/18 01:55:26;;;;;;;8.23;6.10;;;2.60;99.90;;;;;;5075570;28;20029;-75
2023/01/18 01:58:06;;;;;;;9.23;5.68;;;2.60;99.90;;;;;;5075622;28;20028;-75
2023/01/18 02:00:33;;;;;;;9.35;5.68;;;2.50;99.90;;;;;;5075946;28;20025;-75
2023/01/18 02:03:03;;;;;;;12.48;8.07;;;2.50;99.90;;;;;;5076036;28;20462;-75
2023/01/18 02:05:32;;;;;;;10.48;7.30;;;2.50;99.90;;;;;;5057980;28;20059;-75
2023/01/18 02:08:00;;;;;;;10.35;7.00;;;2.50;99.90;;;;;;5076042;28;20047;-75
2023/01/18 02:10:27;;;;;;;9.95;7.00;;;2.40;99.90;;;;;;5075904;28;20052;-74
2023/01/18 02:12:53;;;;;;;9.77;6.78;;;2.40;99.90;;;;;;5075301;28;20021;-75
2023/01/18 02:15:23;;;;;;;9.95;6.70;;;2.40;99.90;;;;;;5057477;28;20121;-75
2023/01/18 02:18:01;;;;;;;9.68;6.88;;;2.40;99.90;;;;;;5075561;28;20032;-75
2023/01/18 02:21:04;;;;;;;10.85;7.10;;;2.40;99.90;;;;;;5075354;28;20021;-76
2023/01/18 02:23:46;;;;;;;9.45;6.55;;;2.40;99.90;;;;;;5056995;28;20029;-76
2023/01/18 02:26:18;;;;;;;10.13;7.28;;;2.50;99.90;;;;;;5057326;28;20024;-76
2023/01/18 02:28:55;;;;;;;11.77;7.03;;;2.50;99.90;;;;;;5057213;28;20049;-75
2023/01/18 02:31:27;;;;;;;10.80;7.88;;;2.60;99.90;;;;;;5076601;28;20024;-75
2023/01/18 02:33:56;;;;;;;10.30;6.88;;;2.60;99.90;;;;;;5075740;28;20508;-76
2023/01/18 02:37:00;;;;;;;9.75;6.70;;;2.60;99.90;;;;;;5074991;28;20561;-75
2023/01/18 02:39:37;;;;;;;7.68;5.70;;;2.60;99.90;;;;;;5074770;28;20028;-75
2023/01/18 02:48:08;;;;;;;9.75;4.30;;;2.50;99.90;;;;;;5074941;28;20031;-76
2023/01/18 02:50:34;;;;;;;5.23;4.33;;;2.50;99.90;;;;;;5057094;28;20024;-76
2023/01/18 02:52:59;;;;;;;6.25;4.60;;;2.50;99.90;;;;;;5056720;28;20397;-75
2023/01/18 02:55:42;;;;;;;6.35;4.47;;;2.50;99.90;;;;;;5057416;28;20040;-75
2023/01/18 02:58:28;;;;;;;5.03;4.15;;;2.50;99.90;;;;;;5074324;28;20028;-75
2023/01/18 03:01:25;;;;;;;6.13;4.35;;;2.50;99.90;;;;;;5074476;28;20047;-76
2023/01/18 03:04:01;;;;;;;5.43;4.53;;;2.60;99.90;;;;;;5074416;28;20054;-76
2023/01/18 03:06:28;;;;;;;6.05;4.80;;;2.50;99.90;;;;;;5056524;28;20055;-75
2023/01/18 03:08:57;;;;;;;6.53;4.90;;;2.50;99.90;;;;;;5056584;28;20024;-75
2023/01/18 03:11:34;;;;;;;7.35;5.50;;;2.50;99.90;;;;;;5056457;28;20024;-76
2023/01/18 03:14:31;;;;;;;5.85;4.95;;;2.60;99.90;;;;;;5073869;28;20593;-76
2023/01/18 03:17:03;;;;;;;7.10;4.53;;;2.60;99.90;;;;;;5074266;28;20035;-76
2023/01/18 03:25:16;;;;;;;7.10;4.85;;;2.60;99.90;;;;;;5074197;28;20450;-76
2023/01/18 03:36:07;;;;;;;6.72;4.80;;;2.50;99.90;;;;;;5074448;28;20051;-75
2023/01/18 03:38:35;;;;;;;6.93;4.93;;;2.60;99.90;;;;;;5074402;28;20526;-75
2023/01/18 03:41:01;;;;;;;7.53;5.53;;;2.50;99.90;;;;;;5056074;28;20094;-76
2023/01/18 03:43:35;;;;;;;7.50;5.40;;;2.50;99.90;;;;;;5074093;28;20531;-76
2023/01/18 03:46:02;;;;;;;9.43;5.15;;;2.50;99.90;;;;;;5073918;28;20017;-76
2023/01/18 03:48:28;;;;;;;7.00;5.00;;;2.50;99.90;;;;;;5056419;28;20020;-76
2023/01/18 03:51:18;;;;;;;8.60;5.70;;;2.50;99.90;;;;;;5074195;28;20032;-76
2023/01/18 03:54:21;;;;;;;8.23;5.57;;;2.40;99.90;;;;;;5073809;28;20030;-76
2023/01/18 03:56:56;;;;;;;7.15;4.68;;;2.40;99.90;;;;;;5020707;28;20060;-75
2023/01/18 03:59:23;;;;;;;7.80;5.43;;;2.40;99.90;;;;;;5055785;28;20029;-76
2023/01/18 04:01:48;;;;;;;7.70;5.53;;;2.40;99.90;;;;;;5055979;28;20120;-76
2023/01/18 04:04:14;;;;;;;10.93;6.18;;;2.40;99.90;;;;;;5055806;28;20060;-75
2023/01/18 04:06:40;;;;;;;12.15;5.50;;;2.40;99.90;;;;;;5055848;28;20115;-75
2023/01/18 04:09:07;;;;;;;8.35;4.65;;;2.30;99.90;;;;;;5073627;28;20021;-75
2023/01/18 04:11:33;;;;;;;10.32;5.25;;;2.30;99.90;;;;;;5056912;28;20025;-76
2023/01/18 04:13:58;;;;;;;9.98;5.60;;;2.40;99.90;;;;;;5059526;28;20034;-75
2023/01/18 04:16:24;;;;;;;12.30;5.32;;;2.30;99.90;;;;;;5059878;28;20086;-75
2023/01/18 04:18:50;;;;;;;9.20;5.55;;;2.30;99.90;;;;;;5077238;28;20021;-76
2023/01/18 04:21:16;;;;;;;12.23;5.50;;;2.30;99.90;;;;;;5077449;28;20033;-75
2023/01/18 04:23:42;;;;;;;8.13;5.07;;;2.40;99.90;;;;;;5077113;28;20032;-75
2023/01/18 04:26:07;;;;;;;10.18;6.22;;;2.40;99.90;;;;;;5059541;28;20052;-76
2023/01/18 04:28:33;;;;;;;8.25;5.20;;;2.40;99.90;;;;;;5058388;28;20052;-76
2023/01/18 04:30:59;;;;;;;8.27;4.78;;;2.40;99.90;;;;;;5076011;28;20028;-75
2023/01/18 04:33:25;;;;;;;8.55;4.85;;;2.40;99.90;;;;;;5058055;28;20030;-76
2023/01/18 04:35:56;;;;;;;7.80;5.00;;;2.50;99.90;;;;;;5075992;28;20032;-76
2023/01/18 04:38:22;;;;;;;9.70;4.90;;;2.50;99.90;;;;;;5075899;28;20386;-75
2023/01/18 04:40:48;;;;;;;5.63;3.90;;;2.50;99.90;;;;;;5058247;28;20111;-75
2023/01/18 04:43:14;;;;;;;6.90;4.53;;;2.50;99.90;;;;;;5075842;28;20097;-76
2023/01/18 04:45:40;;;;;;;7.53;4.78;;;2.50;99.90;;;;;;5075485;28;20474;-75
2023/01/18 04:48:06;;;;;;;6.38;4.15;;;2.50;99.90;;;;;;5075718;28;20020;-76
2023/01/18 04:50:31;;;;;;;7.30;4.78;;;2.50;99.90;;;;;;5057840;28;20021;-76
2023/01/18 04:52:57;;;;;;;12.00;6.13;;;2.60;99.90;;;;;;5075684;28;20032;-76
2023/01/18 04:55:23;;;;;;;12.75;5.53;;;2.60;99.90;;;;;;5075678;28;20489;-76
2023/01/18 04:57:55;;;;;;;10.75;6.10;;;2.60;99.90;;;;;;5075576;28;20053;-76
2023/01/18 05:00:21;;;;;;;12.85;7.22;;;2.60;99.90;;;;;;5075719;28;20066;-76
2023/01/18 05:02:47;;;;;;;12.18;6.50;;;2.60;99.90;;;;;;5057414;28;20092;-76
2023/01/18 05:05:13;;;;;;;10.23;6.65;;;2.70;99.90;;;;;;5057943;28;20079;-75
2023/01/18 05:07:38;;;;;;;14.65;7.07;;;2.70;99.90;;;;;;5075168;28;20025;-76
2023/01/18 05:10:04;;;;;;;21.70;8.18;;;2.70;99.90;;;;;;5057672;28;20135;-76
2023/01/18 05:12:30;;;;;;;14.65;7.75;;;2.70;99.90;;;;;;5057286;28;20085;-77
2023/01/18 05:14:56;;;;;;;13.13;8.18;;;2.80;99.90;;;;;;5057700;28;20028;-76
2023/01/18 05:17:26;;;;;;;12.65;8.10;;;2.80;99.90;;;;;;5057303;28;20025;-73
2023/01/18 05:19:55;;;;;;;16.85;9.45;;;2.80;99.90;;;;;;5057259;28;20024;-76
2023/01/18 05:22:21;;;;;;;12.13;7.75;;;2.80;99.90;;;;;;5075046;28;20028;-75
2023/01/18 05:24:47;;;;;;;14.73;7.80;;;2.80;99.90;;;;;;5075144;28;20048;-75
2023/01/18 05:27:13;;;;;;;20.45;8.48;;;2.80;99.90;;;;;;5029036;28;1302074;-75
2023/01/18 05:29:39;;;;;;;20.23;9.27;;;0.90;99.90;;;;;;5076216;28;20132;-75
2023/01/18 05:32:05;;;;;;;16.73;9.30;;;2.90;99.90;;;;;;5076154;28;20060;-74
2023/01/18 05:34:31;;;;;;;16.92;10.05;;;2.90;99.90;;;;;;5057988;28;20128;-75
2023/01/18 05:36:57;;;;;;;21.02;9.30;;;2.90;99.90;;;;;;5075978;28;20032;-74
2023/01/18 05:39:23;;;;;;;16.95;9.30;;;2.90;99.90;;;;;;5076103;28;20025;-74
2023/01/18 05:41:49;;;;;;;20.20;8.98;;;2.90;99.90;;;;;;5076064;28;20025;-74
2023/01/18 05:44:15;;;;;;;27.73;9.75;;;2.90;99.90;;;;;;5075685;28;20033;-75
2023/01/18 05:46:40;;;;;;;20.00;10.15;;;2.90;99.90;;;;;;5057961;28;20026;-75
2023/01/18 05:49:06;;;;;;;26.38;9.98;;;2.90;99.90;;;;;;5075625;28;20569;-76
2023/01/18 05:51:32;;;;;;;17.98;8.10;;;2.90;99.90;;;;;;5075771;28;20082;-76
2023/01/18 05:53:57;;;;;;;21.33;10.13;;;3.00;99.90;;;;;;5057957;28;20029;-76
2023/01/18 05:56:23;;;;;;;16.70;9.60;;;3.00;99.90;;;;;;5075496;28;20119;-76
2023/01/18 05:58:49;;;;;;;14.65;9.45;;;3.00;99.90;;;;;;5075343;28;20069;-76
2023/01/18 06:01:14;;;;;;;15.35;9.23;;;3.00;99.90;;;;;;5058267;28;20060;-77
2023/01/18 06:03:40;;;;;;;20.92;10.27;;;3.00;99.90;;;;;;5075510;28;20109;-76
2023/01/18 06:06:06;;;;;;;29.90;11.35;;;3.00;99.90;;;;;;5057759;28;20024;-77
2023/01/18 06:08:32;;;;;;;17.05;10.32;;;3.00;99.90;;;;;;5075339;28;20029;-76
2023/01/18 06:10:59;;;;;;;15.93;10.25;;;3.00;99.90;;;;;;5057587;28;20378;-64
2023/01/18 06:13:29;;;;;;;16.77;10.27;;;3.00;99.90;;;;;;5075398;28;20039;-63
2023/01/18 06:15:59;;;;;;;22.05;10.90;;;3.00;99.90;;;;;;5075304;28;20041;-63
2023/01/18 06:18:27;;;;;;;20.15;11.20;;;3.00;99.90;;;;;;5075601;28;20108;-76
2023/01/18 06:20:56;;;;;;;23.60;11.55;;;3.00;99.90;;;;;;5057514;28;20028;-77
2023/01/18 06:23:23;;;;;;;20.92;11.30;;;3.00;99.90;;;;;;5057266;28;20031;-77
2023/01/18 06:25:49;;;;;;;19.98;10.98;;;2.90;99.90;;;;;;5075166;28;20062;-77
2023/01/18 06:28:15;;;;;;;18.92;11.07;;;2.90;99.90;;;;;;5057199;28;20049;-77
2023/01/18 06:30:41;;;;;;;21.20;12.25;;;2.90;99.90;;;;;;5057086;28;20024;-77
2023/01/18 06:33:08;;;;;;;20.80;11.88;;;2.90;99.90;;;;;;5056853;28;20478;-77
2023/01/18 06:35:36;;;;;;;21.40;11.68;;;2.90;99.90;;;;;;5074305;28;20032;-77
2023/01/18 06:38:03;;;;;;;18.88;11.15;;;2.90;99.90;;;;;;5057027;28;20028;-77
2023/01/18 06:40:29;;;;;;;20.65;11.30;;;2.80;99.90;;;;;;5074879;28;20017;-77
2023/01/18 06:42:55;;;;;;;22.35;12.68;;;2.80;99.90;;;;;;5074735;28;20099;-76
2023/01/18 06:45:21;;;;;;;25.27;12.13;;;2.70;99.90;;;;;;5074873;28;20112;-77
2023/01/18 06:47:50;;;;;;;19.63;11.52;;;2.70;99.90;;;;;;5056924;28;20021;-76
2023/01/18 06:50:16;;;;;;;21.40;11.57;;;2.70;99.90;;;;;;5056694;28;20078;-77
2023/01/18 06:52:43;;;;;;;20.90;12.23;;;2.60;99.90;;;;;;5056623;28;20024;-76
2023/01/18 06:55:10;;;;;;;20.20;11.82;;;2.60;99.90;;;;;;5056652;28;20119;-77
2023/01/18 06:57:35;;;;;;;24.70;13.07;;;2.60;99.90;;;;;;5056576;28;20049;-77
2023/01/18 07:00:04;;;;;;;20.65;12.15;;;2.60;99.90;;;;;;5074323;28;20021;-76
2023/01/18 07:02:31;;;;;;;22.30;12.73;;;2.60;99.90;;;;;;5056477;28;20382;-77
2023/01/18 07:04:57;;;;;;;25.40;14.13;;;2.60;99.90;;;;;;5056492;28;20052;-76
2023/01/18 07:07:22;;;;;;;26.70;13.55;;;2.60;99.90;;;;;;5056318;28;20094;-76
2023/01/18 07:09:48;;;;;;;24.92;13.52;;;2.60;99.90;;;;;;5057162;28;20021;-77
2023/01/18 07:12:14;;;;;;;27.60;14.38;;;2.60;99.90;;;;;;5075161;28;20516;-81
2023/01/18 07:14:39;;;;;;;26.92;14.82;;;2.60;99.90;;;;;;5057466;28;20036;-79
2023/01/18 07:17:05;;;;;;;26.80;14.48;;;2.60;99.90;;;;;;5075231;28;20024;-77
2023/01/18 07:19:31;;;;;;;22.27;12.95;;;2.60;99.90;;;;;;5075032;28;20066;-81
2023/01/18 07:21:57;;;;;;;26.75;14.55;;;2.60;99.90;;;;;;5074617;28;20032;-77
2023/01/18 07:24:23;;;;;;;34.20;12.95;;;2.60;99.90;;;;;;5057111;28;20063;-81
2023/01/18 07:26:49;;;;;;;23.15;12.82;;;2.60;99.90;;;;;;5056458;28;20060;-79
2023/01/18 07:29:15;;;;;;;23.02;13.35;;;2.60;99.90;;;;;;5057258;28;20068;-81
2023/01/18 07:31:40;;;;;;;24.02;12.05;;;2.60;99.90;;;;;;5056693;28;20122;-80
2023/01/18 07:34:08;;;;;;;19.77;12.23;;;2.60;99.90;;;;;;5056390;28;20470;-80
2023/01/18 07:36:33;;;;;;;23.15;13.20;;;2.60;99.90;;;;;;5057035;28;20048;-77
2023/01/18 07:39:01;;;;;;;23.33;13.18;;;2.60;99.90;;;;;;5074259;28;20485;-80
2023/01/18 07:41:27;;;;;;;22.55;12.68;;;2.60;99.90;;;;;;5074801;28;20023;-79
2023/01/18 07:43:54;;;;;;;30.13;13.48;;;2.60;99.90;;;;;;5074291;28;20526;-81
2023/01/18 07:46:20;;;;;;;24.60;13.65;;;2.60;99.90;;;;;;5073994;28;20081;-79
2023/01/18 07:48:47;;;;;;;25.60;14.20;;;2.60;99.90;;;;;;5056316;28;20115;-78
2023/01/18 07:51:13;;;;;;;28.95;14.52;;;2.60;99.90;;;;;;5075468;28;20048;-78
2023/01/18 07:53:39;;;;;;;25.52;15.18;;;2.60;99.90;;;;;;5074066;28;20032;-76
2023/01/18 07:56:09;;;;;;;24.75;13.65;;;2.70;99.90;;;;;;5075028;28;20037;-81
2023/01/18 07:58:35;;;;;;;25.45;13.52;;;2.70;99.90;;;;;;5056885;28;20025;-81
2023/01/18 08:01:03;;;;;;;26.20;12.40;;;2.70;99.90;;;;;;5059001;28;20466;-79
2023/01/18 08:03:29;;;;;;;20.10;11.38;;;2.80;99.90;;;;;;5056525;28;20086;-77
2023/01/18 08:06:00;;;;;;;19.63;10.63;;;2.80;99.90;;;;;;5074228;28;20029;-79
2023/01/18 08:08:27;;;;;;;18.38;10.77;;;2.90;99.90;;;;;;5056841;28;20347;-78
2023/01/18 08:10:58;;;;;;;13.77;9.45;;;3.00;99.90;;;;;;5055852;28;20063;-80
2023/01/18 08:13:25;;;;;;;11.98;8.45;;;3.10;99.90;;;;;;5055802;28;20033;-78
2023/01/18 08:15:51;;;;;;;15.20;8.88;;;3.30;99.90;;;;;;5073956;28;20111;-77
2023/01/18 08:18:17;;;;;;;13.55;7.88;;;3.50;99.90;;;;;;5056500;28;20424;-78
2023/01/18 08:20:44;;;;;;;10.40;6.15;;;3.70;99.90;;;;;;5057409;28;20024;-82
2023/01/18 08:23:10;;;;;;;14.32;6.93;;;4.00;99.90;;;;;;5056836;28;20032;-79
2023/01/18 08:25:35;;;;;;;15.10;6.95;;;4.20;99.90;;;;;;5074586;28;20032;-79
2023/01/18 08:28:02;;;;;;;10.32;6.03;;;4.40;99.90;;;;;;5061729;28;20044;-82
2023/01/18 08:30:31;;;;;;;8.13;5.95;;;4.60;99.90;;;;;;5080530;28;20028;-79
2023/01/18 08:32:58;;;;;;;8.60;6.63;;;4.60;99.90;;;;;;5063710;28;20027;-81
2023/01/18 08:35:26;;;;;;;10.10;5.63;;;4.90;99.90;;;;;;5064088;28;20036;-82
2023/01/18 08:37:53;;;;;;;6.75;5.00;;;5.40;99.90;;;;;;5064791;28;20025;-82
2023/01/18 08:40:19;;;;;;;6.95;4.78;;;5.90;99.90;;;;;;5070445;28;20112;-84
2023/01/18 08:42:45;;;;;;;9.02;4.70;;;6.40;99.90;;;;;;5069313;28;20055;-81
2023/01/18 08:45:12;;;;;;;10.48;4.68;;;6.70;99.90;;;;;;5071324;28;20011;-83
2023/01/18 08:47:39;;;;;;;6.88;4.70;;;7.10;99.90;;;;;;5091471;28;20023;-83
2023/01/18 08:50:05;;;;;;;6.18;4.00;;;7.50;99.90;;;;;;5090265;28;20027;-83
2023/01/18 08:52:33;;;;;;;5.75;4.10;;;7.80;99.90;;;;;;5062940;28;20475;-77
2023/01/18 08:55:00;;;;;;;6.55;3.80;;;7.80;99.90;;;;;;5055415;28;20038;-78
2023/01/18 08:57:26;;;;;;;5.07;3.17;;;8.10;99.90;;;;;;5074388;28;20025;-83
2023/01/18 08:59:54;;;;;;;5.72;3.08;;;8.10;99.90;;;;;;5077245;28;20024;-78
2023/01/18 09:02:20;;;;;;;7.28;3.42;;;8.30;99.90;;;;;;5059062;28;20029;-78
2023/01/18 09:04:47;;;;;;;7.03;3.55;;;8.50;99.90;;;;;;5076840;28;20029;-78
2023/01/18 09:07:13;;;;;;;5.38;2.92;;;8.50;99.90;;;;;;5077000;28;20024;-77
2023/01/18 09:09:39;;;;;;;4.25;2.90;;;8.10;99.90;;;;;;5076789;28;20028;-77
2023/01/18 09:12:05;;;;;;;4.20;3.03;;;7.70;99.90;;;;;;5076812;28;20031;-77
2023/01/18 09:14:30;;;;;;;3.05;2.75;;;7.30;99.90;;;;;;5076401;28;20028;-76
2023/01/18 09:16:56;;;;;;;4.28;3.35;;;6.90;99.90;;;;;;5076711;28;20365;-78
2023/01/18 09:19:22;;;;;;;4.53;2.60;;;6.80;99.90;;;;;;5076619;28;20422;-77
2023/01/18 09:21:49;;;;;;;2.85;2.63;;;7.00;99.90;;;;;;5058622;28;20568;-77
2023/01/18 09:24:15;;;;;;;2.88;2.47;;;7.00;99.90;;;;;;5076559;28;20024;-78
2023/01/18 09:26:41;;;;;;;3.08;2.33;;;7.40;99.90;;;;;;5076457;28;20024;-78
2023/01/18 09:29:07;;;;;;;2.40;2.20;;;8.00;99.90;;;;;;5076602;28;20051;-78
2023/01/18 09:31:32;;;;;;;4.78;2.38;;;8.00;99.90;;;;;;5058717;28;20406;-78
2023/01/18 09:33:58;;;;;;;2.92;2.20;;;8.40;99.90;;;;;;5077930;28;20389;-79
2023/01/18 09:36:27;;;;;;;2.50;2.00;;;8.80;99.90;;;;;;5077493;28;20048;-78
2023/01/18 09:38:54;;;;;;;2.20;1.83;;;9.30;99.90;;;;;;5079932;28;20045;-77
2023/01/18 09:41:36;;;;;;;2.75;2.13;;;9.60;98.60;;;;;;5079668;28;20028;-79
2023/01/18 09:44:31;;;;;;;1.73;1.63;;;9.60;96.80;;;;;;5079986;28;20020;-79
2023/01/18 09:47:05;;;;;;;2.03;1.58;;;9.60;95.50;;;;;;5062124;28;20111;-79
2023/01/18 09:49:57;;;;;;;2.72;2.10;;;9.90;95.30;;;;;;5061675;28;20040;-76
2023/01/18 09:52:31;;;;;;;2.45;1.80;;;10.20;94.30;;;;;;5080965;28;20024;-77
2023/01/18 09:55:03;;;;;;;2.00;1.77;;;10.80;93.10;;;;;;5062333;28;20035;-79
2023/01/18 09:57:59;;;;;;;5.75;3.10;;;10.80;91.20;;;;;;5063229;28;20021;-80
2023/01/18 10:00:28;;;;;;;2.20;1.95;;;10.90;91.60;;;;;;5062609;28;20119;-79
2023/01/18 10:02:59;;;;;;;2.72;1.75;;;10.30;91.30;;;;;;5079008;28;20465;-75
2023/01/18 10:05:29;;;;;;;1.63;1.52;;;9.60;93.50;;;;;;5058858;28;20028;-77
2023/01/18 10:08:15;;;;;;;2.45;1.50;;;9.00;94.10;;;;;;5057575;28;20025;-78
2023/01/18 10:11:07;;;;;;;4.75;1.73;;;8.40;96.40;;;;;;5057536;28;20025;-77
2023/01/18 10:13:55;;;;;;;5.80;1.80;;;8.10;97.70;;;;;;5075485;28;20102;-78
2023/01/18 10:16:20;;;;;;;1.60;1.50;;;7.80;99.90;;;;;;5075415;28;20032;-78
2023/01/18 10:18:50;;;;;;;1.65;1.50;;;7.60;99.90;;;;;;5057595;28;20031;-79
2023/01/18 10:21:22;;;;;;;3.58;1.70;;;7.30;99.90;;;;;;5075459;28;20017;-78
2023/01/18 10:24:16;;;;;;;4.82;1.30;;;7.20;99.90;;;;;;5057402;28;20115;-78
2023/01/18 10:26:43;;;;;;;1.52;1.20;;;7.10;99.90;;;;;;5075158;28;20466;-77
2023/01/18 10:29:42;;;;;;;8.07;1.83;;;7.10;99.90;;;;;;5053415;28;20106;-77
2023/01/18 10:32:13;;;;;;;3.85;1.52;;;7.10;99.90;;;;;;5055378;28;20074;-78
2023/01/18 10:34:46;;;;;;;10.75;2.05;;;7.10;99.90;;;;;;5053789;28;20040;-78
2023/01/18 10:37:13;;;;;;;3.63;1.23;;;7.10;99.90;;;;;;5053423;28;20025;-78
2023/01/18 10:39:46;;;;;;;9.80;1.60;;;7.20;99.90;;;;;;5055147;28;20029;-79
2023/01/18 10:42:22;;;;;;;3.38;1.67;;;7.20;99.90;;;;;;5053834;28;20025;-78
2023/01/18 10:44:48;;;;;;;1.88;1.13;;;7.20;99.90;;;;;;5054666;28;20032;-77
2023/01/18 10:47:17;;;;;;;1.52;1.00;;;7.00;99.90;;;;;;5053536;28;20029;-77
2023/01/18 10:49:45;;;;;;;15.45;1.90;;;6.90;99.90;;;;;;5055576;28;20035;-79
2023/01/18 10:52:26;;;;;;;6.72;2.08;;;6.80;99.90;;;;;;5053843;28;20203;-78
2023/01/18 10:54:56;;;;;;;3.05;1.40;;;6.70;99.90;;;;;;5054801;28;20466;-78
2023/01/18 10:57:43;;;;;;;3.78;1.02;;;6.60;99.90;;;;;;5053593;28;20123;-79
2023/01/18 11:00:32;;;;;;;5.45;1.65;;;6.50;99.90;;;;;;5056696;28;20108;-80
2023/01/18 11:02:59;;;;;;;4.35;1.02;;;6.40;99.90;;;;;;5058145;28;20047;-80
2023/01/18 11:05:43;;;;;;;13.95;1.50;;;6.40;99.90;;;;;;5057985;28;20094;-81
2023/01/18 11:08:10;;;;;;;8.63;1.42;;;6.30;99.90;;;;;;5059629;28;20099;-80
2023/01/18 11:10:37;;;;;;;7.50;0.98;;;6.30;99.90;;;;;;5056694;28;20037;-80
2023/01/18 11:13:21;;;;;;;16.48;1.85;;;6.30;99.90;;;;;;5059039;28;20021;-77
2023/01/18 11:15:47;;;;;;;11.60;1.20;;;6.40;99.90;;;;;;5058676;28;20017;-80
2023/01/18 11:18:12;;;;;;;10.80;1.35;;;6.40;99.90;;;;;;5058033;28;20397;-79
2023/01/18 11:20:49;;;;;;;1.98;0.38;;;6.50;99.90;;;;;;5055389;28;20071;-79
2023/01/18 11:23:34;;;;;;;0.98;0.20;;;6.60;99.90;;;;;;5054166;28;20029;-79
2023/01/18 11:26:11;;;;;;;1.77;0.75;;;6.60;99.90;;;;;;5054203;28;20029;-79
2023/01/18 11:29:04;;;;;;;7.30;0.52;;;6.70;99.90;;;;;;5054057;28;20103;-80
2023/01/18 11:31:44;;;;;;;15.30;1.40;;;6.90;99.90;;;;;;5057733;28;20033;-79
2023/01/18 11:34:38;;;;;;;2.53;0.40;;;7.00;99.90;;;;;;5054525;28;20044;-79
2023/01/18 11:37:26;;;;;;;3.08;0.47;;;7.20;99.90;;;;;;5054979;28;20021;-80
2023/01/18 11:39:52;;;;;;;3.42;0.10;;;7.50;99.90;;;;;;5053709;28;20040;-80
2023/01/18 11:42:29;;;;;;;2.20;0.00;;;7.80;98.40;;;;;;5054744;28;20026;-80
2023/01/18 11:45:11;;;;;;;0.73;0.20;;;8.10;98.20;;;;;;5054609;28;20039;-79
2023/01/18 11:47:49;;;;;;;0.70;0.10;;;8.70;95.30;;;;;;5054123;28;20025;-78
2023/01/18 11:50:47;;;;;;;0.45;0.13;;;8.80;94.50;;;;;;5054617;28;20032;-79
2023/01/18 11:53:44;;;;;;;0.00;0.00;;;8.80;94.60;;;;;;5053363;28;20049;-78
2023/01/18 11:56:20;;;;;;;0.50;0.00;;;8.50;93.30;;;;;;5052847;28;20029;-78
2023/01/18 11:58:48;;;;;;;1.90;0.82;;;8.20;93.50;;;;;;5053309;28;20449;-78
2023/01/18 12:01:28;;;;;;;0.75;0.10;;;8.20;95.10;;;;;;5052269;28;20079;-78
2023/01/18 12:04:05;;;;;;;2.38;0.00;;;8.50;94.90;;;;;;5053721;28;20033;-77
2023/01/18 12:06:48;;;;;;;0.10;0.00;;;9.00;92.60;;;;;;5052702;28;20029;-78
2023/01/18 12:09:40;;;;;;;2.00;0.10;;;9.50;91.40;;;;;;5053935;28;20040;-77
2023/01/18 12:12:40;;;;;;;5.88;0.22;;;9.70;90.20;;;;;;5054011;28;20029;-78
2023/01/18 12:15:19;;;;;;;3.55;0.32;;;9.90;87.30;;;;;;5057228;28;20471;-77
2023/01/18 12:18:29;;;;;;;5.70;0.28;;;10.30;84.70;;;;;;5055611;28;20025;-77
2023/01/18 12:21:01;;;;;;;1.58;0.10;;;10.00;80.80;;;;;;5012240;28;20041;-78
2023/01/18 12:23:54;;;;;;;0.35;0.00;;;9.50;83.30;;;;;;5053461;28;20025;-77
2023/01/18 12:26:48;;;;;;;2.70;0.60;;;9.00;83.20;;;;;;5057918;28;20025;-81
2023/01/18 12:29:23;;;;;;;3.50;0.28;;;8.90;85.70;;;;;;5029840;28;20052;-80
2023/01/18 12:31:51;;;;;;;9.40;0.30;;;9.00;86.20;;;;;;5056267;28;20036;-82
2023/01/18 12:34:25;;;;;;;9.52;0.47;;;9.40;84.50;;;;;;5060213;28;20072;-81
2023/01/18 12:37:12;;;;;;;0.22;0.08;;;10.60;81.60;;;;;;5059793;28;20033;-82
2023/01/18 12:39:41;;;;;;;1.70;0.10;;;12.20;74.10;;;;;;5058708;28;20028;-83
2023/01/18 12:42:40;;;;;;;2.67;0.25;;;13.50;62.60;;;;;;5056467;28;20074;-82
2023/01/18 12:45:33;;;;;;;0.73;0.50;;;13.70;60.30;;;;;;5056862;28;20124;-78
2023/01/18 12:48:27;;;;;;;3.45;0.30;;;14.30;57.20;;;;;;5056457;28;20044;-76
2023/01/18 12:50:55;;;;;;;1.58;0.10;;;14.40;54.90;;;;;;5056812;28;20037;-77
2023/01/18 12:53:31;;;;;;;0.70;0.05;;;13.80;54.80;;;;;;5054960;28;20033;-78
2023/01/18 12:56:02;;;;;;;3.17;0.30;;;13.40;54.80;;;;;;5055237;28;20127;-78
2023/01/18 12:58:28;;;;;;;1.17;0.10;;;13.10;55.20;;;;;;5056739;28;20091;-81
2023/01/18 13:00:59;;;;;;;0.93;0.20;;;12.90;56.80;;;;;;5057508;28;20029;-82
2023/01/18 13:03:34;;;;;;;7.75;0.43;;;12.80;56.90;;;;;;5056768;28;20052;-75
2023/01/18 13:06:01;;;;;;;4.50;0.17;;;12.70;58.10;;;;;;5056977;28;20528;-78
2023/01/18 13:08:50;;;;;;;2.58;0.40;;;12.40;57.50;;;;;;5054966;28;20519;-79
2023/01/18 13:11:21;;;;;;;;;;;12.00;59.40;;;;;;5057205;28;20029;-77
2023/01/18 13:13:54;;;;;;;0.98;0.13;;;11.90;59.60;;;;;;5056266;28;19958;-77
2023/01/18 13:17:02;;;;;;;0.20;0.20;;;11.60;60.40;;;;;;5055399;28;20071;-77
2023/01/18 13:19:58;;;;;;;2.63;0.10;;;11.60;61.30;;;;;;5034627;28;20112;-80
2023/01/18 13:22:30;;;;;;;8.25;0.80;;;11.60;63.70;;;;;;5054614;28;20035;-80
2023/01/18 13:25:44;;;;;;;5.20;0.28;;;11.60;63.40;;;;;;5054839;28;20124;-79
2023/01/18 13:28:17;;;;;;;3.92;0.88;;;11.40;64.10;;;;;;4975229;28;20133;-79
2023/01/18 13:31:03;;;;;;;9.98;0.50;;;11.90;61.10;;;;;;5043102;28;20474;-80
2023/01/18 13:33:33;;;;;;;1.85;0.00;;;12.10;63.10;;;;;;5055788;28;20142;-79
2023/01/18 13:36:16;;;;;;;0.45;0.17;;;12.30;63.20;;;;;;5054684;28;20374;-80
2023/01/18 13:38:49;;;;;;;5.38;0.10;;;12.30;59.50;;;;;;5055950;28;20416;-77
2023/01/18 13:41:24;;;;;;;9.20;1.25;;;12.20;58.60;;;;;;5054162;28;20036;-79
2023/01/18 13:43:50;;;;;;;4.32;1.08;;;12.00;62.90;;;;;;5054461;28;20039;-80
2023/01/18 13:46:26;;;;;;;3.58;0.10;;;11.80;61.30;;;;;;5055823;28;20021;-78
2023/01/18 13:49:00;;;;;;;2.75;0.00;;;11.40;63.90;;;;;;5057016;28;20450;-79
2023/01/18 13:51:41;;;;;;;12.05;0.85;;;11.00;64.80;;;;;;5057728;28;20021;-80